Time;durP1;ratioP1;P1;durP2;ratioP2;P2;SDS_P1;SDS_P2;PMS_P1;PMS_P2;Temp;Humidity;BMP_temperature;BMP_pressure;BME280_temperature;BME280_humidity;BME280_pressure;Samples;Min_cycle;Max_cycle;Signal;HPM_P1;HPM_P2
2022/09/20 00:00:20;;;;;;;13.38;8.80;;;;;;;13.65;89.91;101405.22;4841415;29;20026;-86
2022/09/20 00:02:45;;;;;;;10.10;8.13;;;;;;;13.61;89.76;101401.19;4796433;29;20049;-86
2022/09/20 00:05:11;;;;;;;12.38;8.32;;;;;;;13.63;89.94;101409.88;4796421;29;20040;-86
2022/09/20 00:07:37;;;;;;;10.95;8.30;;;;;;;13.62;89.97;101408.16;4816578;29;20034;-86
2022/09/20 00:10:03;;;;;;;10.75;8.43;;;;;;;13.62;89.60;101403.69;4794924;29;20045;-86
2022/09/20 00:12:29;;;;;;;13.43;8.32;;;;;;;13.63;89.53;101410.69;4816665;29;20189;-85
2022/09/20 00:14:54;;;;;;;10.88;8.98;;;;;;;13.60;89.81;101404.84;4793574;29;20038;-86
2022/09/20 00:17:20;;;;;;;10.50;8.20;;;;;;;13.58;89.72;101407.63;4830426;29;20034;-86
2022/09/20 00:19:45;;;;;;;11.73;7.93;;;;;;;13.59;89.54;101414.59;4825177;29;20030;-87
2022/09/20 00:22:11;;;;;;;12.50;8.75;;;;;;;13.56;89.61;101403.41;4796611;29;20041;-81
2022/09/20 00:24:37;;;;;;;10.68;7.90;;;;;;;13.56;89.97;101408.72;4811595;29;20034;-86
2022/09/20 00:27:05;;;;;;;9.23;8.30;;;;;;;13.56;89.70;101406.91;4799294;29;20038;-81
2022/09/20 00:29:31;;;;;;;11.07;8.75;;;;;;;13.58;89.58;101409.44;4821075;29;20030;-86
2022/09/20 00:31:58;;;;;;;10.57;8.32;;;;;;;13.55;89.54;101410.56;4791822;29;20094;-87
2022/09/20 00:37:09;;;;;;;14.00;8.15;;;;;;;13.55;89.47;101417.69;4810188;29;20399;-87
2022/09/20 00:39:35;;;;;;;11.65;8.73;;;;;;;13.54;89.49;101414.19;4818115;29;20025;-86
2022/09/20 00:42:01;;;;;;;12.43;9.27;;;;;;;13.53;89.39;101415.16;4809158;29;20056;-87
2022/09/20 00:44:52;;;;;;;11.13;9.30;;;;;;;13.49;89.66;101405.78;4804363;29;20034;-87
2022/09/20 00:47:33;;;;;;;15.32;9.32;;;;;;;13.46;89.69;101414.00;4807960;29;20955;-87
2022/09/20 00:50:11;;;;;;;12.57;9.77;;;;;;;13.43;89.97;101414.28;4810398;29;20080;-87
2022/09/20 00:52:37;;;;;;;11.75;9.57;;;;;;;13.39;90.35;101408.44;4805560;29;20453;-82
2022/09/20 00:55:06;;;;;;;13.00;10.00;;;;;;;13.40;90.26;101415.41;4795456;29;20046;-87
2022/09/20 00:57:35;;;;;;;16.52;10.15;;;;;;;13.39;90.33;101419.06;4808491;29;20589;-87
2022/09/20 01:00:07;;;;;;;11.90;9.02;;;;;;;13.39;90.33;101416.41;4823354;29;20033;-86
2022/09/20 01:02:37;;;;;;;12.02;9.30;;;;;;;13.38;90.70;101418.19;4810325;29;20037;-87
2022/09/20 01:05:04;;;;;;;14.52;8.68;;;;;;;13.36;90.63;101419.34;4798361;29;20030;-87
2022/09/20 01:07:30;;;;;;;11.60;9.55;;;;;;;13.37;90.79;101427.16;4804566;29;20083;-86
2022/09/20 01:09:56;;;;;;;10.77;9.13;;;;;;;13.35;90.56;101428.25;4829494;29;20073;-86
2022/09/20 01:12:26;;;;;;;11.52;8.57;;;;;;;13.36;90.89;101433.44;4797669;29;20045;-86
2022/09/20 01:14:53;;;;;;;13.55;8.80;;;;;;;13.36;90.93;101430.78;4831238;29;20064;-86
2022/09/20 01:17:21;;;;;;;15.48;9.73;;;;;;;13.38;91.27;101430.63;4795323;29;20108;-87
2022/09/20 01:20:06;;;;;;;14.73;10.35;;;;;;;13.36;90.66;101425.47;4812113;29;20036;-86
2022/09/20 01:22:50;;;;;;;11.80;8.90;;;;;;;13.38;91.00;101435.94;4827451;29;20064;-87
2022/09/20 01:25:25;;;;;;;15.50;9.40;;;;;;;13.40;90.92;101434.00;4818513;29;20086;-88
2022/09/20 01:27:53;;;;;;;19.37;11.47;;;;;;;13.41;91.02;101433.00;4746263;29;20141;-88
2022/09/20 01:30:27;;;;;;;20.35;12.23;;;;;;;13.41;91.05;101430.34;4796947;29;20057;-87
2022/09/20 01:33:05;;;;;;;14.05;10.13;;;;;;;13.43;90.90;101441.69;4796476;29;20041;-87
2022/09/20 01:35:34;;;;;;;14.55;10.88;;;;;;;13.40;91.41;101432.19;4793314;29;20033;-86
2022/09/20 01:38:27;;;;;;;15.25;10.13;;;;;;;13.38;91.27;101433.28;4817355;29;20052;-87
2022/09/20 01:41:11;;;;;;;14.23;10.50;;;;;;;13.35;91.84;101430.91;4807043;29;20102;-87
2022/09/20 01:43:52;;;;;;;15.15;10.68;;;;;;;13.35;91.97;101433.56;4797746;29;20094;-87
2022/09/20 01:46:44;;;;;;;20.08;11.60;;;;;;;13.28;92.13;101431.47;4796086;29;20479;-87
2022/09/20 01:49:13;;;;;;;14.45;10.88;;;;;;;13.30;92.80;101423.34;4825559;29;20069;-87
2022/09/20 01:52:09;;;;;;;14.82;10.70;;;;;;;13.31;92.48;101427.72;4796657;29;20135;-87
2022/09/20 01:54:56;;;;;;;12.38;10.48;;;;;;;13.32;92.93;101423.22;4809416;29;20053;-87
2022/09/20 01:57:41;;;;;;;13.20;9.52;;;;;;;13.35;92.83;101423.78;4821359;29;20045;-86
2022/09/20 02:00:22;;;;;;;14.48;9.80;;;;;;;13.36;92.62;101414.03;4816827;29;20537;-87
2022/09/20 02:02:51;;;;;;;11.35;8.30;;;;;;;13.34;92.84;101418.63;4814319;29;20086;-87
2022/09/20 02:05:33;;;;;;;14.23;9.68;;;;;;;13.33;92.60;101414.31;4816187;29;20037;-87
2022/09/20 02:08:43;;;;;;;12.05;9.13;;;;;;;13.30;92.59;101420.69;4827067;29;20041;-87
2022/09/20 02:11:15;;;;;;;14.52;11.02;;;;;;;13.27;92.86;101416.53;4797335;29;20041;-87
2022/09/20 02:13:44;;;;;;;12.40;9.30;;;;;;;13.24;93.06;101414.16;4795076;29;20037;-87
2022/09/20 02:16:33;;;;;;;12.60;9.88;;;;;;;13.24;93.17;101415.94;4815867;29;20029;-87
2022/09/20 02:19:30;;;;;;;12.40;9.93;;;;;;;13.22;93.09;101412.63;4822619;29;20121;-87
2022/09/20 02:21:55;;;;;;;;;;;;;;;13.09;93.78;101411.03;4809227;29;20094;-87
2022/09/20 02:24:40;;;;;;;15.10;9.37;;;;;;;13.12;93.81;101413.41;4822903;29;20007;-86
2022/09/20 02:27:31;;;;;;;13.15;9.43;;;;;;;13.12;93.48;101409.94;4805076;29;20034;-87
2022/09/20 02:30:35;;;;;;;12.77;9.23;;;;;;;13.08;93.69;101409.38;4829772;29;20046;-88
2022/09/20 02:33:28;;;;;;;11.43;8.68;;;;;;;13.07;93.92;101417.47;4803906;29;20458;-88
2022/09/20 02:36:38;;;;;;;14.73;9.90;;;;;;;13.09;94.20;101412.88;4815935;29;20038;-87
2022/09/20 02:39:21;;;;;;;14.13;9.10;;;;;;;13.03;93.77;101400.97;4758448;30;20035;-87
2022/09/20 02:41:52;;;;;;;10.82;8.73;;;;;;;13.05;94.23;101403.47;4788643;29;20158;-87
2022/09/20 02:44:18;;;;;;;11.98;7.72;;;;;;;13.01;94.33;101405.59;4801409;29;20434;-87
2022/09/20 02:47:02;;;;;;;11.57;7.53;;;;;;;13.03;94.05;101406.28;4812048;29;20121;-87
2022/09/20 02:49:46;;;;;;;11.90;8.73;;;;;;;13.02;94.11;101400.16;4811134;29;20033;-87
2022/09/20 02:52:53;;;;;;;14.20;9.95;;;;;;;13.02;94.02;101392.19;4801872;29;20390;-88
2022/09/20 02:55:24;;;;;;;;;;;;;;;12.90;94.43;101391.44;4745766;30;20138;-87
2022/09/20 02:58:12;;;;;;;10.95;8.23;;;;;;;12.97;94.16;101389.09;4738661;30;19957;-87
2022/09/20 03:00:52;;;;;;;11.38;7.78;;;;;;;12.98;93.76;101390.75;4794628;29;20037;-86
2022/09/20 03:03:38;;;;;;;10.77;8.43;;;;;;;13.01;93.89;101390.50;4797409;29;20034;-87
2022/09/20 03:06:18;;;;;;;;;;;;;;;12.86;93.98;101390.06;4823910;29;20029;-87
2022/09/20 03:09:09;;;;;;;11.10;8.90;;;;;;;12.90;93.94;101387.94;4827432;29;20387;-87
2022/09/20 03:11:43;;;;;;;10.68;8.35;;;;;;;12.92;93.96;101380.69;4811744;29;20425;-87
2022/09/20 03:14:14;;;;;;;10.20;8.13;;;;;;;12.92;93.88;101385.16;4811831;29;20482;-87
2022/09/20 03:17:09;;;;;;;9.52;7.82;;;;;;;12.90;93.78;101382.63;4834446;29;20042;-87
2022/09/20 03:19:52;;;;;;;10.10;7.70;;;;;;;12.89;93.94;101380.97;4790178;29;20034;-87
2022/09/20 03:22:24;;;;;;;12.40;7.72;;;;;;;12.89;93.85;101376.50;4795789;29;20046;-87
2022/09/20 03:24:49;;;;;;;10.73;7.70;;;;;;;12.87;93.79;101377.59;4825755;29;20529;-87
2022/09/20 03:27:27;;;;;;;11.25;8.13;;;;;;;12.87;93.87;101369.66;4825082;29;20038;-87
2022/09/20 03:29:55;;;;;;;8.90;7.25;;;;;;;12.85;93.25;101367.13;4841565;29;20034;-88
2022/09/20 03:32:49;;;;;;;9.77;8.23;;;;;;;12.84;93.22;101362.81;4812109;29;20046;-87
2022/09/20 03:35:30;;;;;;;12.07;8.77;;;;;;;12.78;93.17;101361.56;4841838;29;20029;-88
2022/09/20 03:38:25;;;;;;;9.75;7.70;;;;;;;12.75;93.22;101367.13;4808495;29;20472;-87
2022/09/20 03:41:24;;;;;;;17.70;8.52;;;;;;;12.65;93.02;101371.56;4797969;29;20049;-87
2022/09/20 03:43:56;;;;;;;13.63;9.00;;;;;;;12.55;93.34;101366.22;4809085;29;20136;-88
2022/09/20 03:46:33;;;;;;;15.13;9.65;;;;;;;12.47;93.74;101358.13;4825681;29;20029;-87
2022/09/20 03:49:05;;;;;;;12.30;9.25;;;;;;;12.39;94.12;101356.13;4786516;29;20048;-87
2022/09/20 03:52:12;;;;;;;12.70;9.75;;;;;;;12.30;94.92;101362.22;4839966;29;20046;-87
2022/09/20 03:54:52;;;;;;;11.50;8.55;;;;;;;12.23;95.54;101361.94;4830136;29;20486;-87
2022/09/20 03:57:37;;;;;;;12.02;8.68;;;;;;;12.23;95.45;101369.88;4832086;29;20034;-87
2022/09/20 04:00:27;;;;;;;9.80;8.43;;;;;;;12.21;95.52;101364.72;4833928;29;20038;-87
2022/09/20 04:03:16;;;;;;;15.90;8.70;;;;;;;12.24;95.61;101371.53;4840473;29;20034;-87
2022/09/20 04:06:21;;;;;;;15.90;10.23;;;;;;;12.25;95.16;101363.47;4789146;29;20062;-87
2022/09/20 04:09:00;;;;;;;9.90;7.60;;;;;;;12.26;95.38;101373.09;4831712;29;20125;-89
2022/09/20 04:11:36;;;;;;;10.35;8.60;;;;;;;12.25;94.94;101382.00;4809142;29;20551;-88
2022/09/20 04:14:28;;;;;;;12.50;8.35;;;;;;;12.18;94.88;101370.28;4817314;29;20097;-88
2022/09/20 04:17:05;;;;;;;17.38;8.95;;;;;;;12.17;95.11;101370.41;4821794;29;20038;-89
2022/09/20 04:19:55;;;;;;;13.55;9.70;;;;;;;12.14;95.38;101363.53;4805124;29;20101;-89
2022/09/20 04:22:24;;;;;;;13.60;9.50;;;;;;;12.03;95.37;101364.44;4794610;29;20098;-88
2022/09/20 04:24:54;;;;;;;15.00;9.73;;;;;;;11.91;95.64;101367.16;4807972;29;20075;-89
2022/09/20 04:27:30;;;;;;;12.40;10.50;;;;;;;11.84;96.37;101363.34;4813274;29;20034;-89
2022/09/20 04:30:16;;;;;;;15.57;10.68;;;;;;;11.79;96.45;101362.91;4796102;29;20062;-88
2022/09/20 04:33:22;;;;;;;13.80;10.70;;;;;;;11.68;96.75;101370.91;4810167;29;20057;-88
2022/09/20 04:36:30;;;;;;;14.15;9.93;;;;;;;11.60;96.95;101366.25;4789181;29;20391;-88
2022/09/20 04:39:20;;;;;;;16.17;9.40;;;;;;;11.58;97.89;101360.25;4798996;29;20048;-88
2022/09/20 04:42:12;;;;;;;9.57;8.00;;;;;;;11.59;97.27;101365.44;4798496;29;20546;-88
2022/09/20 04:44:53;;;;;;;12.00;9.90;;;;;;;11.57;96.57;101372.66;4806124;29;20041;-87
2022/09/20 04:47:41;;;;;;;14.95;11.05;;;;;;;11.50;96.83;101367.03;4828902;29;20129;-88
2022/09/20 04:50:40;;;;;;;12.63;10.30;;;;;;;11.41;97.08;101370.44;4798075;29;20056;-88
2022/09/20 04:53:45;;;;;;;13.73;10.02;;;;;;;11.35;97.78;101363.84;4794561;29;20070;-88
2022/09/20 04:56:39;;;;;;;15.13;10.27;;;;;;;11.38;98.21;101373.34;4800443;29;20072;-88
2022/09/20 04:59:09;;;;;;;12.38;9.98;;;;;;;11.40;97.95;101371.41;4811625;29;20054;-88
2022/09/20 05:01:55;;;;;;;10.32;9.20;;;;;;;11.46;97.25;101372.69;4832194;29;20038;-88
2022/09/20 05:04:27;;;;;;;12.25;9.02;;;;;;;11.47;97.29;101375.22;4835097;29;20482;-88
2022/09/20 05:07:11;;;;;;;13.48;8.60;;;;;;;11.43;97.21;101368.50;4804378;29;20132;-88
2022/09/20 05:09:59;;;;;;;22.17;10.32;;;;;;;11.45;97.14;101376.31;4804818;29;20062;-88
2022/09/20 05:12:53;;;;;;;12.15;8.70;;;;;;;11.43;96.87;101373.81;4824205;29;20367;-88
2022/09/20 05:15:43;;;;;;;11.38;9.25;;;;;;;11.47;96.60;101375.22;4810291;29;20038;-88
2022/09/20 05:18:46;;;;;;;11.55;9.85;;;;;;;11.52;96.76;101375.69;4814099;29;20394;-88
2022/09/20 05:21:31;;;;;;;12.57;8.65;;;;;;;11.53;96.31;101374.72;4843243;29;20487;-89
2022/09/20 05:23:59;;;;;;;9.70;8.02;;;;;;;11.53;96.83;101369.41;4811209;29;20037;-88
2022/09/20 05:26:36;;;;;;;31.70;9.65;;;;;;;11.57;96.72;101371.81;4821955;29;20076;-89
2022/09/20 05:29:30;;;;;;;12.45;9.05;;;;;;;11.49;96.45;101373.28;4826128;29;20026;-89
2022/09/20 05:32:12;;;;;;;11.43;8.68;;;;;;;11.47;96.77;101371.72;4803999;29;20053;-88
2022/09/20 05:34:45;;;;;;;11.40;8.70;;;;;;;11.42;96.97;101374.75;4827687;29;20040;-88
2022/09/20 05:37:52;;;;;;;10.68;8.45;;;;;;;11.37;97.23;101375.13;4832578;29;20562;-89
2022/09/20 05:40:47;;;;;;;11.40;8.13;;;;;;;11.39;97.54;101378.50;4821269;29;20046;-89
2022/09/20 05:43:15;;;;;;;14.13;8.88;;;;;;;11.37;97.28;101372.47;4794200;29;20042;-88
2022/09/20 05:45:47;;;;;;;8.90;7.35;;;;;;;11.42;97.37;101377.41;4820400;29;20627;-88
2022/09/20 05:48:20;;;;;;;10.85;8.23;;;;;;;11.45;97.10;101369.19;4834665;29;20060;-88
2022/09/20 05:50:59;;;;;;;13.82;8.10;;;;;;;11.45;96.41;101371.84;4830709;29;20034;-89
2022/09/20 05:53:57;;;;;;;10.20;8.10;;;;;;;11.41;96.71;101379.22;4806816;29;20045;-88
2022/09/20 05:56:36;;;;;;;8.73;7.68;;;;;;;11.37;96.52;101377.78;4815683;29;20065;-88
2022/09/20 05:59:42;;;;;;;7.53;6.72;;;;;;;11.35;96.53;101373.59;4788652;29;20090;-88
2022/09/20 06:02:20;;;;;;;10.10;7.18;;;;;;;11.34;96.37;101378.03;4811763;29;20062;-88
2022/09/20 06:05:00;;;;;;;8.27;6.72;;;;;;;11.35;96.30;101382.38;4797040;29;20041;-88
2022/09/20 06:07:50;;;;;;;12.32;7.65;;;;;;;11.33;96.05;101383.44;4813146;29;20037;-88
2022/09/20 06:10:40;;;;;;;8.68;6.97;;;;;;;11.22;96.08;101394.91;4822877;29;20057;-88
2022/09/20 06:13:19;;;;;;;8.70;7.00;;;;;;;11.22;96.32;101398.41;4813295;29;20082;-88
2022/09/20 06:15:51;;;;;;;10.07;6.75;;;;;;;11.21;96.47;101402.00;4813000;29;20044;-88
2022/09/20 06:18:30;;;;;;;7.70;7.00;;;;;;;11.21;96.28;101402.00;4800638;29;20079;-89
2022/09/20 06:21:04;;;;;;;8.80;6.75;;;;;;;11.18;96.57;101396.16;4823564;29;20038;-89
2022/09/20 06:23:31;;;;;;;9.00;6.55;;;;;;;11.14;96.53;101401.69;4791579;29;20038;-88
2022/09/20 06:26:32;;;;;;;11.45;6.57;;;;;;;11.12;96.47;101400.97;4795284;29;20041;-89
2022/09/20 06:29:10;;;;;;;7.70;6.30;;;;;;;11.14;96.93;101400.84;4812670;29;20046;-88
2022/09/20 06:31:36;;;;;;;9.00;7.07;;;;;;;11.20;96.95;101400.34;4841869;29;20484;-88
2022/09/20 06:34:07;;;;;;;7.55;5.97;;;;;;;11.26;96.67;101404.31;4825937;29;20037;-89
2022/09/20 06:42:38;;;;;;;12.32;8.32;;;;;;;11.34;97.00;101401.84;4824398;29;20054;-88
2022/09/20 06:45:04;;;;;;;9.77;7.13;;;;;;;11.37;96.87;101403.44;4810818;29;20074;-88
2022/09/20 06:47:30;;;;;;;9.23;7.43;;;;;;;11.36;97.15;101410.53;4811298;29;20057;-88
2022/09/20 06:49:57;;;;;;;7.95;7.15;;;;;;;11.37;97.61;101416.66;4821894;29;20475;-89
2022/09/20 06:52:23;;;;;;;9.43;7.45;;;;;;;11.40;98.20;101416.41;4810670;29;20041;-88
2022/09/20 06:54:53;;;;;;;7.43;6.47;;;;;;;11.48;98.05;101421.91;4809830;29;21038;-89
2022/09/20 06:57:36;;;;;;;10.55;6.82;;;;;;;11.45;97.93;101416.03;4840744;29;20395;-88
2022/09/20 07:00:05;;;;;;;9.57;6.88;;;;;;;11.38;98.44;101410.41;4807964;29;20026;-88
2022/09/20 07:02:30;;;;;;;7.30;6.60;;;;;;;11.36;98.98;101410.53;4810719;29;20034;-88
2022/09/20 07:04:57;;;;;;;7.32;6.55;;;;;;;11.37;99.69;101414.84;4811373;29;20034;-89
2022/09/20 07:07:24;;;;;;;8.38;6.65;;;;;;;11.40;99.67;101406.66;4826481;29;20072;-89
2022/09/20 07:09:50;;;;;;;9.70;7.65;;;;;;;11.45;99.65;101418.69;4827000;29;20042;-88
2022/09/20 07:12:16;;;;;;;10.23;7.80;;;;;;;11.46;99.91;101409.75;4809458;29;20386;-88
2022/09/20 07:14:43;;;;;;;8.13;7.20;;;;;;;11.49;100.00;101407.72;4809005;29;20479;-88
2022/09/20 07:17:09;;;;;;;12.05;7.95;;;;;;;11.59;100.00;101414.88;4823178;29;20053;-88
2022/09/20 07:19:35;;;;;;;9.63;7.68;;;;;;;11.62;100.00;101407.53;4830246;29;20041;-89
2022/09/20 07:22:01;;;;;;;10.55;7.85;;;;;;;11.72;100.00;101406.78;4823244;29;20428;-89
2022/09/20 07:24:29;;;;;;;8.98;7.10;;;;;;;11.75;100.00;101409.16;4811015;29;20033;-89
2022/09/20 07:26:58;;;;;;;13.40;8.20;;;;;;;11.86;100.00;101417.06;4807430;29;20038;-89
2022/09/20 07:29:24;;;;;;;11.25;8.05;;;;;;;11.84;100.00;101410.19;4773751;29;20052;-89
2022/09/20 07:31:50;;;;;;;10.30;8.23;;;;;;;11.87;100.00;101418.72;4808299;29;20050;-89
2022/09/20 07:34:19;;;;;;;9.50;8.23;;;;;;;11.84;100.00;101410.19;4810700;29;20045;-88
2022/09/20 07:36:49;;;;;;;10.80;8.32;;;;;;;11.89;100.00;101414.16;4818547;29;20057;-88
2022/09/20 07:39:15;;;;;;;12.40;8.57;;;;;;;11.91;100.00;101419.31;4805826;29;20105;-89
2022/09/20 07:41:47;;;;;;;8.50;7.47;;;;;;;11.95;100.00;101418.06;4801206;29;20060;-89
2022/09/20 07:44:26;;;;;;;10.48;8.73;;;;;;;12.00;100.00;101413.25;4802988;29;20490;-89
2022/09/20 07:46:58;;;;;;;10.57;8.13;;;;;;;12.05;100.00;101410.19;4813536;29;20097;-89
2022/09/20 07:49:25;;;;;;;15.40;8.20;;;;;;;12.04;100.00;101409.34;4791752;29;20026;-88
2022/09/20 07:51:52;;;;;;;11.23;8.90;;;;;;;12.03;100.00;101414.78;4815749;29;20078;-88
2022/09/20 07:54:19;;;;;;;12.30;8.60;;;;;;;12.04;100.00;101419.94;4840649;29;20681;-89
2022/09/20 07:56:45;;;;;;;15.43;7.80;;;;;;;12.02;100.00;101421.06;4796744;29;20034;-88
2022/09/20 07:59:12;;;;;;;11.93;8.43;;;;;;;12.04;100.00;101419.09;4840062;29;20511;-89
2022/09/20 08:01:39;;;;;;;12.00;9.40;;;;;;;12.10;100.00;101434.53;4824730;29;20375;-88
2022/09/20 08:04:06;;;;;;;13.10;9.48;;;;;;;12.14;100.00;101435.09;4797988;29;20098;-87
2022/09/20 08:06:36;;;;;;;20.88;9.40;;;;;;;12.17;100.00;101429.53;4810759;29;20029;-87
2022/09/20 08:09:03;;;;;;;19.05;10.48;;;;;;;12.11;100.00;101430.91;4828630;29;20036;-87
2022/09/20 08:11:29;;;;;;;15.82;10.02;;;;;;;12.07;100.00;101428.63;4813459;29;20034;-87
2022/09/20 08:13:58;;;;;;;13.27;9.55;;;;;;;12.10;100.00;101425.75;4837194;29;20063;-87
2022/09/20 08:16:25;;;;;;;17.13;11.38;;;;;;;12.10;100.00;101428.38;4820296;29;20040;-87
2022/09/20 08:18:56;;;;;;;13.10;10.35;;;;;;;12.13;100.00;101434.28;4813317;29;20086;-87
2022/09/20 08:21:30;;;;;;;14.60;11.30;;;;;;;12.21;100.00;101435.41;4814579;29;20030;-87
2022/09/20 08:23:56;;;;;;;14.20;9.85;;;;;;;12.26;100.00;101430.56;4815890;29;20034;-87
2022/09/20 08:26:24;;;;;;;15.52;10.32;;;;;;;12.35;100.00;101434.25;4799944;29;20038;-87
2022/09/20 08:28:54;;;;;;;14.85;10.00;;;;;;;12.39;100.00;101433.03;4814563;29;20049;-87
2022/09/20 08:31:23;;;;;;;14.95;10.05;;;;;;;12.48;100.00;101434.88;4793179;29;20055;-88
2022/09/20 08:33:50;;;;;;;9.98;8.90;;;;;;;12.56;100.00;101434.22;4798153;29;20057;-87
2022/09/20 08:36:19;;;;;;;25.42;9.27;;;;;;;12.64;100.00;101436.19;4780044;29;20092;-88
2022/09/20 08:38:45;;;;;;;11.57;9.32;;;;;;;12.70;100.00;101429.50;4778953;29;20061;-88
2022/09/20 08:41:13;;;;;;;12.40;10.27;;;;;;;12.78;100.00;101425.22;4812516;29;20471;-88
2022/09/20 08:44:26;;;;;;;12.52;9.63;;;;;;;12.84;100.00;101436.25;4797121;29;20184;-87
2022/09/20 08:47:08;;;;;;;14.20;10.07;;;;;;;12.93;100.00;101438.13;4779585;29;20107;-88
2022/09/20 08:49:34;;;;;;;19.15;10.45;;;;;;;13.01;100.00;101432.94;4795945;29;20122;-87
2022/09/20 08:52:02;;;;;;;15.23;9.90;;;;;;;13.13;100.00;101427.53;4799881;29;20038;-88
2022/09/20 08:54:32;;;;;;;15.27;11.38;;;;;;;13.21;100.00;101426.84;4798133;29;20034;-87
2022/09/20 08:57:04;;;;;;;11.32;9.50;;;;;;;13.26;100.00;101420.16;4815719;29;20042;-88
2022/09/20 08:59:32;;;;;;;19.10;9.38;;;;;;;13.28;100.00;101420.03;4809105;29;20095;-87
2022/09/20 09:01:58;;;;;;;11.35;8.45;;;;;;;13.33;100.00;101412.47;4795040;29;20053;-88
2022/09/20 09:04:34;;;;;;;9.60;8.52;;;;;;;13.44;100.00;101416.78;4796463;29;20038;-87
2022/09/20 09:06:59;;;;;;;13.77;7.88;;;;;;;13.50;100.00;101416.31;4792770;29;20050;-87
2022/09/20 09:09:27;;;;;;;10.63;8.82;;;;;;;13.62;100.00;101419.63;4777365;29;20476;-88
2022/09/20 09:11:57;;;;;;;11.13;8.50;;;;;;;13.67;100.00;101421.88;4782766;29;20133;-88
2022/09/20 09:14:47;;;;;;;10.75;8.38;;;;;;;13.72;100.00;101418.78;4824422;29;20049;-87
2022/09/20 09:17:16;;;;;;;12.73;7.80;;;;;;;13.82;100.00;101419.63;4820971;29;20044;-88
2022/09/20 09:19:56;;;;;;;11.38;8.90;;;;;;;13.94;100.00;101414.13;4799450;29;20030;-87
2022/09/20 09:22:34;;;;;;;14.27;8.25;;;;;;;14.06;100.00;101410.38;4794700;29;20054;-87
2022/09/20 09:25:05;;;;;;;11.75;8.93;;;;;;;14.18;100.00;101412.81;4786656;29;20035;-88
2022/09/20 09:27:31;;;;;;;10.02;8.13;;;;;;;14.28;100.00;101418.97;4825687;29;20039;-87
2022/09/20 09:29:57;;;;;;;16.58;7.88;;;;;;;14.42;100.00;101422.13;4809767;29;20051;-87
2022/09/20 09:32:31;;;;;;;12.82;7.63;;;;;;;14.52;100.00;101421.09;4839100;29;20038;-86
2022/09/20 09:35:28;;;;;;;9.25;7.05;;;;;;;14.60;100.00;101423.06;4813902;29;20037;-86
2022/09/20 09:37:59;;;;;;;9.57;6.47;;;;;;;14.69;100.00;101424.00;4811519;29;20062;-86
2022/09/20 09:40:27;;;;;;;8.38;7.47;;;;;;;14.76;99.91;101426.91;4828477;29;20037;-89
2022/09/20 09:42:57;;;;;;;9.07;6.78;;;;;;;14.85;99.30;101422.53;4814400;29;20042;-86
2022/09/20 09:45:25;;;;;;;9.60;7.22;;;;;;;14.98;98.92;101419.53;4808484;29;20094;-88
2022/09/20 09:47:52;;;;;;;8.52;7.13;;;;;;;15.04;97.92;101423.41;4813422;29;20029;-87
2022/09/20 09:50:29;;;;;;;8.57;7.25;;;;;;;15.17;97.35;101426.56;4812858;29;20124;-88
2022/09/20 09:53:17;;;;;;;7.38;6.60;;;;;;;15.29;96.50;101431.66;4797580;29;20026;-87
2022/09/20 09:56:18;;;;;;;8.98;7.18;;;;;;;15.34;95.89;101424.03;4828483;29;20026;-87
2022/09/20 09:58:57;;;;;;;8.70;6.78;;;;;;;15.48;95.97;101428.84;4768489;29;20506;-87
2022/09/20 10:01:50;;;;;;;8.52;6.38;;;;;;;15.57;94.99;101432.44;4817092;29;20044;-87
2022/09/20 10:04:25;;;;;;;8.52;6.55;;;;;;;15.63;94.64;101428.31;4815194;29;20038;-86
2022/09/20 10:07:22;;;;;;;8.80;6.35;;;;;;;15.61;93.93;101425.78;4808770;29;20038;-87
2022/09/20 10:10:16;;;;;;;6.55;5.95;;;;;;;15.72;93.44;101427.38;4811609;29;20038;-88
2022/09/20 10:12:57;;;;;;;7.03;5.90;;;;;;;15.83;93.19;101426.28;4795746;29;20073;-87
2022/09/20 10:15:52;;;;;;;9.70;5.72;;;;;;;15.92;93.15;101426.34;4800512;29;20044;-87
2022/09/20 10:18:37;;;;;;;8.23;5.55;;;;;;;16.00;92.68;101421.13;4816242;29;20099;-87
2022/09/20 10:21:30;;;;;;;6.95;5.25;;;;;;;16.07;92.06;101424.00;4810907;29;20049;-87
2022/09/20 10:24:19;;;;;;;7.50;5.95;;;;;;;16.19;91.66;101432.56;4831650;29;20040;-87
2022/09/20 10:27:11;;;;;;;6.00;4.85;;;;;;;16.21;90.95;101426.06;4838254;29;20414;-86
2022/09/20 10:29:51;;;;;;;6.15;5.15;;;;;;;16.32;89.96;101418.81;4814988;29;20072;-86
2022/09/20 10:32:32;;;;;;;7.40;5.68;;;;;;;16.51;89.87;101412.41;4829704;29;20193;-87
2022/09/20 10:35:22;;;;;;;7.35;4.93;;;;;;;16.70;88.45;101421.16;4828640;29;20376;-88
2022/09/20 10:38:24;;;;;;;7.32;4.50;;;;;;;16.86;88.06;101412.38;4828465;29;20038;-87
2022/09/20 10:44:17;;;;;;;6.47;3.92;;;;;;;17.06;86.45;101407.56;4843433;29;20045;-88
2022/09/20 10:47:01;;;;;;;5.05;4.18;;;;;;;17.15;85.50;101412.97;4825991;29;20521;-87
2022/09/20 10:49:40;;;;;;;6.30;3.80;;;;;;;17.17;85.13;101408.31;4838291;29;20048;-87
2022/09/20 10:52:26;;;;;;;5.38;3.58;;;;;;;17.17;84.11;101406.44;4844445;29;20490;-87
2022/09/20 10:55:03;;;;;;;4.18;3.72;;;;;;;17.12;83.72;101403.41;4861246;29;20037;-87
2022/09/20 10:58:06;;;;;;;3.70;2.90;;;;;;;17.13;83.14;101413.13;4812308;29;20049;-88
2022/09/20 11:00:46;;;;;;;4.57;3.40;;;;;;;17.14;83.04;101414.78;4827697;29;20041;-88
2022/09/20 11:03:27;;;;;;;5.28;3.72;;;;;;;17.03;82.45;101407.06;4829318;29;20041;-87
2022/09/20 11:05:58;;;;;;;4.03;2.65;;;;;;;17.00;82.45;101405.56;4843155;29;20025;-87
2022/09/20 11:08:32;;;;;;;3.85;2.80;;;;;;;17.00;82.03;101405.56;4826011;29;20073;-86
2022/09/20 11:11:17;;;;;;;4.40;2.60;;;;;;;16.99;81.64;101404.72;4829092;29;20053;-86
2022/09/20 11:14:10;;;;;;;4.13;2.47;;;;;;;17.14;81.38;101408.63;4844807;29;20601;-88
2022/09/20 11:16:50;;;;;;;2.83;2.53;;;;;;;17.32;80.46;101400.47;4840671;29;20379;-88
2022/09/20 11:19:38;;;;;;;4.55;2.75;;;;;;;17.41;79.20;101404.81;4815266;29;20045;-86
2022/09/20 11:22:22;;;;;;;2.95;2.47;;;;;;;17.34;78.67;101409.16;4841945;29;20046;-87
2022/09/20 11:24:55;;;;;;;3.40;2.53;;;;;;;17.32;78.80;101409.31;4812053;29;20041;-86
2022/09/20 11:27:30;;;;;;;4.07;2.47;;;;;;;17.30;78.26;101405.13;4830494;29;20033;-85
2022/09/20 11:30:08;;;;;;;4.15;2.95;;;;;;;17.28;77.66;101401.81;4842863;29;20068;-87
2022/09/20 11:33:00;;;;;;;2.70;2.38;;;;;;;17.22;77.41;101395.25;4827785;29;20091;-87
2022/09/20 11:35:36;;;;;;;3.58;2.30;;;;;;;17.20;77.38;101397.28;4834687;29;20072;-87
2022/09/20 11:38:31;;;;;;;4.30;2.35;;;;;;;17.21;77.04;101391.78;4795134;29;20170;-87
2022/09/20 11:41:19;;;;;;;2.80;2.50;;;;;;;17.22;77.05;101392.59;4827718;29;20407;-87
2022/09/20 11:43:46;;;;;;;3.33;2.45;;;;;;;17.22;77.29;101393.44;4831373;29;20041;-87
2022/09/20 11:46:26;;;;;;;5.72;3.00;;;;;;;17.20;77.13;101395.44;4828995;29;20096;-87
2022/09/20 11:49:00;;;;;;;3.78;2.53;;;;;;;17.14;77.44;101395.28;4843732;29;20094;-86
2022/09/20 11:51:48;;;;;;;3.95;2.70;;;;;;;17.03;77.63;101394.53;4843476;29;20510;-87
2022/09/20 11:54:36;;;;;;;5.93;2.67;;;;;;;16.98;77.40;101383.50;4837010;29;20077;-87
2022/09/20 11:57:02;;;;;;;5.50;2.65;;;;;;;16.98;77.77;101387.03;4828609;29;20620;-86
2022/09/20 11:59:41;;;;;;;3.35;2.70;;;;;;;16.99;77.80;101386.00;4825349;29;20142;-88
2022/09/20 12:02:45;;;;;;;4.25;2.33;;;;;;;17.17;77.19;101381.59;4822982;29;20538;-87
2022/09/20 12:05:34;;;;;;;3.80;2.55;;;;;;;17.43;76.63;101376.09;4802071;29;20513;-86
2022/09/20 12:08:05;;;;;;;2.72;2.38;;;;;;;17.65;76.20;101379.06;4828031;29;20076;-88
2022/09/20 12:10:35;;;;;;;3.33;2.00;;;;;;;17.71;75.02;101375.72;4826184;29;20561;-88
2022/09/20 12:13:04;;;;;;;4.10;2.28;;;;;;;17.79;74.11;101372.19;4843114;29;20041;-88
2022/09/20 12:15:30;;;;;;;5.45;2.00;;;;;;;17.85;73.26;101373.38;4835424;29;20042;-87
2022/09/20 12:17:56;;;;;;;2.58;2.13;;;;;;;18.07;72.85;101373.66;4840394;29;20045;-87
2022/09/20 12:20:34;;;;;;;4.20;1.80;;;;;;;18.31;70.90;101372.78;4826112;29;20044;-89